<?xml version="1.0" encoding="UTF-8" standalone="no" ?>
<gpx xmlns="http://www.topografix.com/GPX/1/1" xmlns:xsi="http://www.w3.org/2001/XMLSchema-instance" xsi:schemaLocation="http://www.topografix.com/GPX/1/1 http://www.topografix.com/GPX/1/1/gpx.xsd" version="1.1" creator="VisuGPX - https://www.visugpx.com">
  <metadata>
    <name>Les landes de Gurwan</name>
    <desc><![CDATA[Visite de quelques sites de la légende Arthurienne (maison de Viviane , tombeau du géant ) et du château de Trecesson.]]></desc>
  </metadata>
  <trk>
    <name><![CDATA[TRECESSON6 17:30:48]]></name>
    <trkseg>
      <trkpt lat="47.99496" lon="-2.26724">
        <ele>184.23</ele>
        <time>2016-07-05T11:17:20Z</time>
      </trkpt>
      <trkpt lat="47.99512" lon="-2.26767">
        <ele>187.59</ele>
        <time>2016-07-05T11:17:50Z</time>
      </trkpt>
      <trkpt lat="47.99529" lon="-2.26794">
        <ele>189.04</ele>
        <time>2016-07-05T11:18:20Z</time>
      </trkpt>
      <trkpt lat="47.99559" lon="-2.2683">
        <ele>188.08</ele>
        <time>2016-07-05T11:18:50Z</time>
      </trkpt>
      <trkpt lat="47.99591" lon="-2.26861">
        <ele>184.23</ele>
        <time>2016-07-05T11:19:20Z</time>
      </trkpt>
      <trkpt lat="47.9962" lon="-2.26902">
        <ele>181.83</ele>
        <time>2016-07-05T11:19:50Z</time>
      </trkpt>
      <trkpt lat="47.99636" lon="-2.26952">
        <ele>184.71</ele>
        <time>2016-07-05T11:20:20Z</time>
      </trkpt>
      <trkpt lat="47.99657" lon="-2.26977">
        <ele>185.67</ele>
        <time>2016-07-05T11:20:50Z</time>
      </trkpt>
      <trkpt lat="47.99661" lon="-2.26977">
        <ele>185.67</ele>
        <time>2016-07-05T11:21:20Z</time>
      </trkpt>
      <trkpt lat="47.99699" lon="-2.26974">
        <ele>183.75</ele>
        <time>2016-07-05T11:21:50Z</time>
      </trkpt>
      <trkpt lat="47.99723" lon="-2.26967">
        <ele>183.75</ele>
        <time>2016-07-05T11:22:20Z</time>
      </trkpt>
      <trkpt lat="47.99766" lon="-2.2695">
        <ele>180.87</ele>
        <time>2016-07-05T11:22:50Z</time>
      </trkpt>
      <trkpt lat="47.99798" lon="-2.26938">
        <ele>180.87</ele>
        <time>2016-07-05T11:23:20Z</time>
      </trkpt>
      <trkpt lat="47.99817" lon="-2.26919">
        <ele>181.35</ele>
        <time>2016-07-05T11:23:50Z</time>
      </trkpt>
      <trkpt lat="47.99846" lon="-2.26894">
        <ele>180.38</ele>
        <time>2016-07-05T11:24:20Z</time>
      </trkpt>
      <trkpt lat="47.99883" lon="-2.26883">
        <ele>180.38</ele>
        <time>2016-07-05T11:24:50Z</time>
      </trkpt>
      <trkpt lat="47.99912" lon="-2.26888">
        <ele>181.35</ele>
        <time>2016-07-05T11:25:20Z</time>
      </trkpt>
      <trkpt lat="47.99938" lon="-2.26865">
        <ele>184.71</ele>
        <time>2016-07-05T11:25:50Z</time>
      </trkpt>
      <trkpt lat="47.99957" lon="-2.26849">
        <ele>190</ele>
        <time>2016-07-05T11:26:20Z</time>
      </trkpt>
      <trkpt lat="47.99963" lon="-2.26856">
        <ele>192.4</ele>
        <time>2016-07-05T11:26:50Z</time>
      </trkpt>
      <trkpt lat="47.99967" lon="-2.26852">
        <ele>191.44</ele>
        <time>2016-07-05T11:27:20Z</time>
      </trkpt>
      <trkpt lat="47.99975" lon="-2.26864">
        <ele>190.96</ele>
        <time>2016-07-05T11:27:50Z</time>
      </trkpt>
      <trkpt lat="47.99979" lon="-2.26871">
        <ele>191.44</ele>
        <time>2016-07-05T11:28:20Z</time>
      </trkpt>
      <trkpt lat="48.00008" lon="-2.26872">
        <ele>187.59</ele>
        <time>2016-07-05T11:28:50Z</time>
      </trkpt>
      <trkpt lat="48.00012" lon="-2.2687">
        <ele>188.08</ele>
        <time>2016-07-05T11:29:20Z</time>
      </trkpt>
      <trkpt lat="48.00012" lon="-2.26872">
        <ele>188.56</ele>
        <time>2016-07-05T11:29:50Z</time>
      </trkpt>
      <trkpt lat="48.00014" lon="-2.2687">
        <ele>188.08</ele>
        <time>2016-07-05T11:30:20Z</time>
      </trkpt>
      <trkpt lat="48.00013" lon="-2.26873">
        <ele>189.04</ele>
        <time>2016-07-05T11:30:50Z</time>
      </trkpt>
      <trkpt lat="48.00015" lon="-2.26871">
        <ele>188.56</ele>
        <time>2016-07-05T11:31:20Z</time>
      </trkpt>
      <trkpt lat="48.00013" lon="-2.2687">
        <ele>188.56</ele>
        <time>2016-07-05T11:31:50Z</time>
      </trkpt>
      <trkpt lat="48.00007" lon="-2.26867">
        <ele>188.56</ele>
        <time>2016-07-05T11:32:20Z</time>
      </trkpt>
      <trkpt lat="47.99978" lon="-2.26865">
        <ele>190.96</ele>
        <time>2016-07-05T11:32:50Z</time>
      </trkpt>
      <trkpt lat="47.9996" lon="-2.26859">
        <ele>191.44</ele>
        <time>2016-07-05T11:33:20Z</time>
      </trkpt>
      <trkpt lat="47.99947" lon="-2.26859">
        <ele>186.63</ele>
        <time>2016-07-05T11:33:50Z</time>
      </trkpt>
      <trkpt lat="47.99952" lon="-2.26862">
        <ele>186.15</ele>
        <time>2016-07-05T11:34:20Z</time>
      </trkpt>
      <trkpt lat="47.99938" lon="-2.26868">
        <ele>183.27</ele>
        <time>2016-07-05T11:34:50Z</time>
      </trkpt>
      <trkpt lat="47.99923" lon="-2.26882">
        <ele>181.35</ele>
        <time>2016-07-05T11:35:20Z</time>
      </trkpt>
      <trkpt lat="47.99887" lon="-2.26876">
        <ele>179.9</ele>
        <time>2016-07-05T11:35:50Z</time>
      </trkpt>
      <trkpt lat="47.9985" lon="-2.2689">
        <ele>180.38</ele>
        <time>2016-07-05T11:36:20Z</time>
      </trkpt>
      <trkpt lat="47.99828" lon="-2.26923">
        <ele>181.35</ele>
        <time>2016-07-05T11:36:50Z</time>
      </trkpt>
      <trkpt lat="47.99839" lon="-2.26958">
        <ele>179.42</ele>
        <time>2016-07-05T11:37:20Z</time>
      </trkpt>
      <trkpt lat="47.99864" lon="-2.26972">
        <ele>177.5</ele>
        <time>2016-07-05T11:37:50Z</time>
      </trkpt>
      <trkpt lat="47.99905" lon="-2.27005">
        <ele>176.54</ele>
        <time>2016-07-05T11:38:20Z</time>
      </trkpt>
      <trkpt lat="47.99928" lon="-2.27031">
        <ele>176.06</ele>
        <time>2016-07-05T11:38:50Z</time>
      </trkpt>
      <trkpt lat="47.99929" lon="-2.27036">
        <ele>175.58</ele>
        <time>2016-07-05T11:39:20Z</time>
      </trkpt>
      <trkpt lat="47.99949" lon="-2.27045">
        <ele>173.17</ele>
        <time>2016-07-05T11:39:50Z</time>
      </trkpt>
      <trkpt lat="47.99988" lon="-2.27071">
        <ele>170.29</ele>
        <time>2016-07-05T11:40:20Z</time>
      </trkpt>
      <trkpt lat="48.00018" lon="-2.27072">
        <ele>168.85</ele>
        <time>2016-07-05T11:40:50Z</time>
      </trkpt>
      <trkpt lat="48.00044" lon="-2.27062">
        <ele>167.41</ele>
        <time>2016-07-05T11:41:20Z</time>
      </trkpt>
      <trkpt lat="48.00074" lon="-2.27026">
        <ele>167.41</ele>
        <time>2016-07-05T11:41:50Z</time>
      </trkpt>
      <trkpt lat="48.00101" lon="-2.26985">
        <ele>164.52</ele>
        <time>2016-07-05T11:42:20Z</time>
      </trkpt>
      <trkpt lat="48.0015" lon="-2.26962">
        <ele>159.72</ele>
        <time>2016-07-05T11:42:50Z</time>
      </trkpt>
      <trkpt lat="48.00169" lon="-2.26973">
        <ele>153.47</ele>
        <time>2016-07-05T11:43:20Z</time>
      </trkpt>
      <trkpt lat="48.00205" lon="-2.26983">
        <ele>147.22</ele>
        <time>2016-07-05T11:43:50Z</time>
      </trkpt>
      <trkpt lat="48.00252" lon="-2.26993">
        <ele>142.41</ele>
        <time>2016-07-05T11:44:20Z</time>
      </trkpt>
      <trkpt lat="48.00273" lon="-2.26999">
        <ele>139.53</ele>
        <time>2016-07-05T11:44:50Z</time>
      </trkpt>
      <trkpt lat="48.00283" lon="-2.26994">
        <ele>139.53</ele>
        <time>2016-07-05T11:45:20Z</time>
      </trkpt>
      <trkpt lat="48.00282" lon="-2.26983">
        <ele>139.05</ele>
        <time>2016-07-05T11:45:50Z</time>
      </trkpt>
      <trkpt lat="48.00284" lon="-2.26989">
        <ele>140.01</ele>
        <time>2016-07-05T11:46:20Z</time>
      </trkpt>
      <trkpt lat="48.00276" lon="-2.2699">
        <ele>139.53</ele>
        <time>2016-07-05T11:46:50Z</time>
      </trkpt>
      <trkpt lat="48.00274" lon="-2.26983">
        <ele>140.49</ele>
        <time>2016-07-05T11:47:20Z</time>
      </trkpt>
      <trkpt lat="48.00269" lon="-2.2698">
        <ele>140.49</ele>
        <time>2016-07-05T11:47:50Z</time>
      </trkpt>
      <trkpt lat="48.00287" lon="-2.27033">
        <ele>140.01</ele>
        <time>2016-07-05T11:48:20Z</time>
      </trkpt>
      <trkpt lat="48.00298" lon="-2.27082">
        <ele>138.57</ele>
        <time>2016-07-05T11:48:50Z</time>
      </trkpt>
      <trkpt lat="48.00306" lon="-2.27135">
        <ele>137.13</ele>
        <time>2016-07-05T11:49:20Z</time>
      </trkpt>
      <trkpt lat="48.00302" lon="-2.2719">
        <ele>134.24</ele>
        <time>2016-07-05T11:49:50Z</time>
      </trkpt>
      <trkpt lat="48.00286" lon="-2.27241">
        <ele>132.32</ele>
        <time>2016-07-05T11:50:20Z</time>
      </trkpt>
      <trkpt lat="48.00293" lon="-2.27304">
        <ele>128.47</ele>
        <time>2016-07-05T11:50:50Z</time>
      </trkpt>
      <trkpt lat="48.00317" lon="-2.27338">
        <ele>125.11</ele>
        <time>2016-07-05T11:51:20Z</time>
      </trkpt>
      <trkpt lat="48.00326" lon="-2.2733">
        <ele>125.59</ele>
        <time>2016-07-05T11:51:50Z</time>
      </trkpt>
      <trkpt lat="48.00358" lon="-2.27318">
        <ele>126.07</ele>
        <time>2016-07-05T11:52:20Z</time>
      </trkpt>
      <trkpt lat="48.00386" lon="-2.27296">
        <ele>126.55</ele>
        <time>2016-07-05T11:52:50Z</time>
      </trkpt>
      <trkpt lat="48.00422" lon="-2.27277">
        <ele>127.99</ele>
        <time>2016-07-05T11:53:20Z</time>
      </trkpt>
      <trkpt lat="48.00446" lon="-2.27244">
        <ele>129.43</ele>
        <time>2016-07-05T11:53:50Z</time>
      </trkpt>
      <trkpt lat="48.0047" lon="-2.27198">
        <ele>131.36</ele>
        <time>2016-07-05T11:54:20Z</time>
      </trkpt>
      <trkpt lat="48.00476" lon="-2.27146">
        <ele>131.84</ele>
        <time>2016-07-05T11:54:50Z</time>
      </trkpt>
      <trkpt lat="48.00484" lon="-2.27099">
        <ele>133.28</ele>
        <time>2016-07-05T11:55:20Z</time>
      </trkpt>
      <trkpt lat="48.00482" lon="-2.27042">
        <ele>135.2</ele>
        <time>2016-07-05T11:55:50Z</time>
      </trkpt>
      <trkpt lat="48.00459" lon="-2.26996">
        <ele>136.64</ele>
        <time>2016-07-05T11:56:20Z</time>
      </trkpt>
      <trkpt lat="48.00443" lon="-2.26954">
        <ele>137.13</ele>
        <time>2016-07-05T11:56:50Z</time>
      </trkpt>
      <trkpt lat="48.00426" lon="-2.26903">
        <ele>138.57</ele>
        <time>2016-07-05T11:57:20Z</time>
      </trkpt>
      <trkpt lat="48.0042" lon="-2.26842">
        <ele>140.49</ele>
        <time>2016-07-05T11:57:50Z</time>
      </trkpt>
      <trkpt lat="48.00409" lon="-2.2679">
        <ele>140.97</ele>
        <time>2016-07-05T11:58:20Z</time>
      </trkpt>
      <trkpt lat="48.00387" lon="-2.26755">
        <ele>143.85</ele>
        <time>2016-07-05T11:58:50Z</time>
      </trkpt>
      <trkpt lat="48.00369" lon="-2.26749">
        <ele>144.82</ele>
        <time>2016-07-05T11:59:20Z</time>
      </trkpt>
      <trkpt lat="48.00367" lon="-2.26758">
        <ele>144.34</ele>
        <time>2016-07-05T11:59:50Z</time>
      </trkpt>
      <trkpt lat="48.00366" lon="-2.26768">
        <ele>143.85</ele>
        <time>2016-07-05T12:00:20Z</time>
      </trkpt>
      <trkpt lat="48.00363" lon="-2.26768">
        <ele>144.34</ele>
        <time>2016-07-05T12:00:50Z</time>
      </trkpt>
      <trkpt lat="48.00373" lon="-2.26758">
        <ele>144.34</ele>
        <time>2016-07-05T12:01:20Z</time>
      </trkpt>
      <trkpt lat="48.00374" lon="-2.26751">
        <ele>144.82</ele>
        <time>2016-07-05T12:01:50Z</time>
      </trkpt>
      <trkpt lat="48.00376" lon="-2.26743">
        <ele>145.3</ele>
        <time>2016-07-05T12:02:20Z</time>
      </trkpt>
      <trkpt lat="48.00378" lon="-2.2675">
        <ele>145.78</ele>
        <time>2016-07-05T12:02:50Z</time>
      </trkpt>
      <trkpt lat="48.00344" lon="-2.26733">
        <ele>147.22</ele>
        <time>2016-07-05T12:03:20Z</time>
      </trkpt>
      <trkpt lat="48.00318" lon="-2.26713">
        <ele>149.62</ele>
        <time>2016-07-05T12:03:50Z</time>
      </trkpt>
      <trkpt lat="48.00288" lon="-2.2669">
        <ele>151.06</ele>
        <time>2016-07-05T12:04:20Z</time>
      </trkpt>
      <trkpt lat="48.00279" lon="-2.2666">
        <ele>152.51</ele>
        <time>2016-07-05T12:04:50Z</time>
      </trkpt>
      <trkpt lat="48.0027" lon="-2.26611">
        <ele>153.47</ele>
        <time>2016-07-05T12:05:20Z</time>
      </trkpt>
      <trkpt lat="48.00262" lon="-2.26565">
        <ele>154.91</ele>
        <time>2016-07-05T12:05:50Z</time>
      </trkpt>
      <trkpt lat="48.00253" lon="-2.26516">
        <ele>155.87</ele>
        <time>2016-07-05T12:06:20Z</time>
      </trkpt>
      <trkpt lat="48.00254" lon="-2.26455">
        <ele>157.31</ele>
        <time>2016-07-05T12:06:50Z</time>
      </trkpt>
      <trkpt lat="48.00251" lon="-2.26399">
        <ele>158.27</ele>
        <time>2016-07-05T12:07:20Z</time>
      </trkpt>
      <trkpt lat="48.0022" lon="-2.26368">
        <ele>159.72</ele>
        <time>2016-07-05T12:07:50Z</time>
      </trkpt>
      <trkpt lat="48.00189" lon="-2.26364">
        <ele>161.16</ele>
        <time>2016-07-05T12:08:20Z</time>
      </trkpt>
      <trkpt lat="48.00186" lon="-2.2637">
        <ele>160.68</ele>
        <time>2016-07-05T12:08:50Z</time>
      </trkpt>
      <trkpt lat="48.00185" lon="-2.2636">
        <ele>160.68</ele>
        <time>2016-07-05T12:09:20Z</time>
      </trkpt>
      <trkpt lat="48.00184" lon="-2.26368">
        <ele>160.68</ele>
        <time>2016-07-05T12:09:50Z</time>
      </trkpt>
      <trkpt lat="48.0018" lon="-2.2635">
        <ele>161.16</ele>
        <time>2016-07-05T12:10:20Z</time>
      </trkpt>
      <trkpt lat="48.00167" lon="-2.26311">
        <ele>160.68</ele>
        <time>2016-07-05T12:10:50Z</time>
      </trkpt>
      <trkpt lat="48.00171" lon="-2.26312">
        <ele>161.64</ele>
        <time>2016-07-05T12:11:20Z</time>
      </trkpt>
      <trkpt lat="48.00167" lon="-2.26299">
        <ele>160.68</ele>
        <time>2016-07-05T12:11:50Z</time>
      </trkpt>
      <trkpt lat="48.00151" lon="-2.2625">
        <ele>163.08</ele>
        <time>2016-07-05T12:12:20Z</time>
      </trkpt>
      <trkpt lat="48.00139" lon="-2.26202">
        <ele>166.45</ele>
        <time>2016-07-05T12:12:50Z</time>
      </trkpt>
      <trkpt lat="48.00127" lon="-2.26163">
        <ele>170.29</ele>
        <time>2016-07-05T12:13:20Z</time>
      </trkpt>
      <trkpt lat="48.00115" lon="-2.26122">
        <ele>174.62</ele>
        <time>2016-07-05T12:13:50Z</time>
      </trkpt>
      <trkpt lat="48.00101" lon="-2.26081">
        <ele>176.54</ele>
        <time>2016-07-05T12:14:20Z</time>
      </trkpt>
      <trkpt lat="48.00095" lon="-2.26071">
        <ele>177.98</ele>
        <time>2016-07-05T12:14:50Z</time>
      </trkpt>
      <trkpt lat="48.0009" lon="-2.26072">
        <ele>177.5</ele>
        <time>2016-07-05T12:15:20Z</time>
      </trkpt>
      <trkpt lat="48.00097" lon="-2.26067">
        <ele>177.98</ele>
        <time>2016-07-05T12:15:50Z</time>
      </trkpt>
      <trkpt lat="48.00097" lon="-2.26065">
        <ele>177.98</ele>
        <time>2016-07-05T12:16:20Z</time>
      </trkpt>
      <trkpt lat="48.00118" lon="-2.26039">
        <ele>178.94</ele>
        <time>2016-07-05T12:16:50Z</time>
      </trkpt>
      <trkpt lat="48.00127" lon="-2.25988">
        <ele>180.38</ele>
        <time>2016-07-05T12:17:20Z</time>
      </trkpt>
      <trkpt lat="48.00122" lon="-2.25968">
        <ele>180.87</ele>
        <time>2016-07-05T12:17:50Z</time>
      </trkpt>
      <trkpt lat="48.00125" lon="-2.25947">
        <ele>181.83</ele>
        <time>2016-07-05T12:18:20Z</time>
      </trkpt>
      <trkpt lat="48.00124" lon="-2.25899">
        <ele>182.79</ele>
        <time>2016-07-05T12:18:50Z</time>
      </trkpt>
      <trkpt lat="48.00121" lon="-2.25847">
        <ele>184.23</ele>
        <time>2016-07-05T12:19:20Z</time>
      </trkpt>
      <trkpt lat="48.00117" lon="-2.25817">
        <ele>185.19</ele>
        <time>2016-07-05T12:19:50Z</time>
      </trkpt>
      <trkpt lat="48.00109" lon="-2.25781">
        <ele>185.19</ele>
        <time>2016-07-05T12:20:20Z</time>
      </trkpt>
      <trkpt lat="48.00109" lon="-2.2575">
        <ele>185.67</ele>
        <time>2016-07-05T12:20:50Z</time>
      </trkpt>
      <trkpt lat="48.00107" lon="-2.25747">
        <ele>185.67</ele>
        <time>2016-07-05T12:21:20Z</time>
      </trkpt>
      <trkpt lat="48.00107" lon="-2.2575">
        <ele>186.15</ele>
        <time>2016-07-05T12:21:50Z</time>
      </trkpt>
      <trkpt lat="48.00108" lon="-2.25751">
        <ele>186.15</ele>
        <time>2016-07-05T12:22:20Z</time>
      </trkpt>
      <trkpt lat="48.00107" lon="-2.25751">
        <ele>185.67</ele>
        <time>2016-07-05T12:22:50Z</time>
      </trkpt>
      <trkpt lat="48.00106" lon="-2.25751">
        <ele>186.15</ele>
        <time>2016-07-05T12:23:20Z</time>
      </trkpt>
      <trkpt lat="48.00108" lon="-2.25749">
        <ele>186.63</ele>
        <time>2016-07-05T12:23:50Z</time>
      </trkpt>
      <trkpt lat="48.00109" lon="-2.25748">
        <ele>186.15</ele>
        <time>2016-07-05T12:24:20Z</time>
      </trkpt>
      <trkpt lat="48.00106" lon="-2.25751">
        <ele>187.11</ele>
        <time>2016-07-05T12:24:50Z</time>
      </trkpt>
      <trkpt lat="48.0011" lon="-2.25775">
        <ele>187.11</ele>
        <time>2016-07-05T12:25:20Z</time>
      </trkpt>
      <trkpt lat="48.00112" lon="-2.258">
        <ele>186.15</ele>
        <time>2016-07-05T12:25:50Z</time>
      </trkpt>
      <trkpt lat="48.00119" lon="-2.25853">
        <ele>186.15</ele>
        <time>2016-07-05T12:26:20Z</time>
      </trkpt>
      <trkpt lat="48.00124" lon="-2.25908">
        <ele>184.71</ele>
        <time>2016-07-05T12:26:50Z</time>
      </trkpt>
      <trkpt lat="48.00126" lon="-2.25969">
        <ele>183.27</ele>
        <time>2016-07-05T12:27:20Z</time>
      </trkpt>
      <trkpt lat="48.00124" lon="-2.26015">
        <ele>182.31</ele>
        <time>2016-07-05T12:27:50Z</time>
      </trkpt>
      <trkpt lat="48.00103" lon="-2.26058">
        <ele>179.9</ele>
        <time>2016-07-05T12:28:20Z</time>
      </trkpt>
      <trkpt lat="48.00076" lon="-2.2609">
        <ele>180.38</ele>
        <time>2016-07-05T12:28:50Z</time>
      </trkpt>
      <trkpt lat="48.00043" lon="-2.26107">
        <ele>178.46</ele>
        <time>2016-07-05T12:29:20Z</time>
      </trkpt>
      <trkpt lat="48.00006" lon="-2.26121">
        <ele>177.02</ele>
        <time>2016-07-05T12:29:50Z</time>
      </trkpt>
      <trkpt lat="47.99967" lon="-2.26138">
        <ele>177.02</ele>
        <time>2016-07-05T12:30:20Z</time>
      </trkpt>
      <trkpt lat="47.99935" lon="-2.26142">
        <ele>176.06</ele>
        <time>2016-07-05T12:30:50Z</time>
      </trkpt>
      <trkpt lat="47.99904" lon="-2.26121">
        <ele>176.06</ele>
        <time>2016-07-05T12:31:20Z</time>
      </trkpt>
      <trkpt lat="47.99883" lon="-2.26085">
        <ele>176.54</ele>
        <time>2016-07-05T12:31:50Z</time>
      </trkpt>
      <trkpt lat="47.99867" lon="-2.26033">
        <ele>177.98</ele>
        <time>2016-07-05T12:32:20Z</time>
      </trkpt>
      <trkpt lat="47.9985" lon="-2.26001">
        <ele>178.94</ele>
        <time>2016-07-05T12:32:50Z</time>
      </trkpt>
      <trkpt lat="47.99828" lon="-2.25957">
        <ele>180.38</ele>
        <time>2016-07-05T12:33:20Z</time>
      </trkpt>
      <trkpt lat="47.9981" lon="-2.25911">
        <ele>178.46</ele>
        <time>2016-07-05T12:33:50Z</time>
      </trkpt>
      <trkpt lat="47.99813" lon="-2.25858">
        <ele>177.98</ele>
        <time>2016-07-05T12:34:20Z</time>
      </trkpt>
      <trkpt lat="47.99814" lon="-2.25804">
        <ele>176.06</ele>
        <time>2016-07-05T12:34:50Z</time>
      </trkpt>
      <trkpt lat="47.99795" lon="-2.25762">
        <ele>176.06</ele>
        <time>2016-07-05T12:35:20Z</time>
      </trkpt>
      <trkpt lat="47.99764" lon="-2.25739">
        <ele>171.73</ele>
        <time>2016-07-05T12:35:50Z</time>
      </trkpt>
      <trkpt lat="47.99745" lon="-2.25718">
        <ele>169.81</ele>
        <time>2016-07-05T12:36:20Z</time>
      </trkpt>
      <trkpt lat="47.99743" lon="-2.2572">
        <ele>170.29</ele>
        <time>2016-07-05T12:36:50Z</time>
      </trkpt>
      <trkpt lat="47.99733" lon="-2.25698">
        <ele>171.25</ele>
        <time>2016-07-05T12:37:20Z</time>
      </trkpt>
      <trkpt lat="47.99713" lon="-2.25673">
        <ele>172.21</ele>
        <time>2016-07-05T12:37:50Z</time>
      </trkpt>
      <trkpt lat="47.99703" lon="-2.25667">
        <ele>173.17</ele>
        <time>2016-07-05T12:38:20Z</time>
      </trkpt>
      <trkpt lat="47.99676" lon="-2.25642">
        <ele>175.1</ele>
        <time>2016-07-05T12:38:50Z</time>
      </trkpt>
      <trkpt lat="47.99646" lon="-2.25625">
        <ele>177.02</ele>
        <time>2016-07-05T12:39:20Z</time>
      </trkpt>
      <trkpt lat="47.99623" lon="-2.25598">
        <ele>177.02</ele>
        <time>2016-07-05T12:39:50Z</time>
      </trkpt>
      <trkpt lat="47.99627" lon="-2.25556">
        <ele>176.06</ele>
        <time>2016-07-05T12:40:20Z</time>
      </trkpt>
      <trkpt lat="47.99634" lon="-2.25499">
        <ele>174.62</ele>
        <time>2016-07-05T12:40:50Z</time>
      </trkpt>
      <trkpt lat="47.99627" lon="-2.25477">
        <ele>173.17</ele>
        <time>2016-07-05T12:41:20Z</time>
      </trkpt>
      <trkpt lat="47.99596" lon="-2.2548">
        <ele>173.17</ele>
        <time>2016-07-05T12:41:50Z</time>
      </trkpt>
      <trkpt lat="47.99558" lon="-2.2547">
        <ele>172.21</ele>
        <time>2016-07-05T12:42:20Z</time>
      </trkpt>
      <trkpt lat="47.99525" lon="-2.25477">
        <ele>172.69</ele>
        <time>2016-07-05T12:42:50Z</time>
      </trkpt>
      <trkpt lat="47.99491" lon="-2.25489">
        <ele>175.1</ele>
        <time>2016-07-05T12:43:20Z</time>
      </trkpt>
      <trkpt lat="47.99462" lon="-2.25496">
        <ele>176.06</ele>
        <time>2016-07-05T12:43:50Z</time>
      </trkpt>
      <trkpt lat="47.99446" lon="-2.25502">
        <ele>177.02</ele>
        <time>2016-07-05T12:44:20Z</time>
      </trkpt>
      <trkpt lat="47.99415" lon="-2.25495">
        <ele>177.5</ele>
        <time>2016-07-05T12:44:50Z</time>
      </trkpt>
      <trkpt lat="47.99396" lon="-2.25501">
        <ele>177.98</ele>
        <time>2016-07-05T12:45:20Z</time>
      </trkpt>
      <trkpt lat="47.99395" lon="-2.25496">
        <ele>178.46</ele>
        <time>2016-07-05T12:45:50Z</time>
      </trkpt>
      <trkpt lat="47.99372" lon="-2.25515">
        <ele>177.02</ele>
        <time>2016-07-05T12:46:20Z</time>
      </trkpt>
      <trkpt lat="47.99345" lon="-2.25517">
        <ele>177.02</ele>
        <time>2016-07-05T12:46:50Z</time>
      </trkpt>
      <trkpt lat="47.99314" lon="-2.25531">
        <ele>176.54</ele>
        <time>2016-07-05T12:47:20Z</time>
      </trkpt>
      <trkpt lat="47.99273" lon="-2.25532">
        <ele>176.54</ele>
        <time>2016-07-05T12:47:50Z</time>
      </trkpt>
      <trkpt lat="47.9925" lon="-2.25534">
        <ele>177.02</ele>
        <time>2016-07-05T12:48:20Z</time>
      </trkpt>
      <trkpt lat="47.99211" lon="-2.25523">
        <ele>177.5</ele>
        <time>2016-07-05T12:48:50Z</time>
      </trkpt>
      <trkpt lat="47.99185" lon="-2.25486">
        <ele>176.54</ele>
        <time>2016-07-05T12:49:20Z</time>
      </trkpt>
      <trkpt lat="47.99158" lon="-2.25453">
        <ele>174.14</ele>
        <time>2016-07-05T12:49:50Z</time>
      </trkpt>
      <trkpt lat="47.99142" lon="-2.25412">
        <ele>173.17</ele>
        <time>2016-07-05T12:50:20Z</time>
      </trkpt>
      <trkpt lat="47.99131" lon="-2.25417">
        <ele>172.69</ele>
        <time>2016-07-05T12:50:50Z</time>
      </trkpt>
      <trkpt lat="47.99137" lon="-2.25415">
        <ele>172.69</ele>
        <time>2016-07-05T12:51:20Z</time>
      </trkpt>
      <trkpt lat="47.99136" lon="-2.2541">
        <ele>172.21</ele>
        <time>2016-07-05T12:51:50Z</time>
      </trkpt>
      <trkpt lat="47.99135" lon="-2.25413">
        <ele>172.21</ele>
        <time>2016-07-05T12:52:20Z</time>
      </trkpt>
      <trkpt lat="47.99136" lon="-2.25415">
        <ele>172.69</ele>
        <time>2016-07-05T12:52:50Z</time>
      </trkpt>
      <trkpt lat="47.99104" lon="-2.25425">
        <ele>171.73</ele>
        <time>2016-07-05T12:53:20Z</time>
      </trkpt>
      <trkpt lat="47.99075" lon="-2.25447">
        <ele>172.21</ele>
        <time>2016-07-05T12:53:50Z</time>
      </trkpt>
      <trkpt lat="47.99048" lon="-2.25475">
        <ele>173.66</ele>
        <time>2016-07-05T12:54:20Z</time>
      </trkpt>
      <trkpt lat="47.9902" lon="-2.25508">
        <ele>176.06</ele>
        <time>2016-07-05T12:54:50Z</time>
      </trkpt>
      <trkpt lat="47.98991" lon="-2.25537">
        <ele>178.46</ele>
        <time>2016-07-05T12:55:20Z</time>
      </trkpt>
      <trkpt lat="47.99002" lon="-2.25579">
        <ele>178.46</ele>
        <time>2016-07-05T12:55:50Z</time>
      </trkpt>
      <trkpt lat="47.99009" lon="-2.25591">
        <ele>178.46</ele>
        <time>2016-07-05T12:56:20Z</time>
      </trkpt>
      <trkpt lat="47.99006" lon="-2.25587">
        <ele>179.42</ele>
        <time>2016-07-05T12:56:50Z</time>
      </trkpt>
      <trkpt lat="47.99006" lon="-2.25586">
        <ele>178.94</ele>
        <time>2016-07-05T12:57:20Z</time>
      </trkpt>
      <trkpt lat="47.9899" lon="-2.25584">
        <ele>179.9</ele>
        <time>2016-07-05T12:57:50Z</time>
      </trkpt>
      <trkpt lat="47.98988" lon="-2.25585">
        <ele>180.38</ele>
        <time>2016-07-05T12:58:20Z</time>
      </trkpt>
      <trkpt lat="47.9899" lon="-2.25586">
        <ele>179.9</ele>
        <time>2016-07-05T12:58:50Z</time>
      </trkpt>
      <trkpt lat="47.9899" lon="-2.25586">
        <ele>180.87</ele>
        <time>2016-07-05T12:59:20Z</time>
      </trkpt>
      <trkpt lat="47.9897" lon="-2.25603">
        <ele>181.83</ele>
        <time>2016-07-05T12:59:50Z</time>
      </trkpt>
      <trkpt lat="47.98937" lon="-2.25625">
        <ele>182.79</ele>
        <time>2016-07-05T13:00:20Z</time>
      </trkpt>
      <trkpt lat="47.98903" lon="-2.25646">
        <ele>183.75</ele>
        <time>2016-07-05T13:00:50Z</time>
      </trkpt>
      <trkpt lat="47.98869" lon="-2.25655">
        <ele>183.75</ele>
        <time>2016-07-05T13:01:20Z</time>
      </trkpt>
      <trkpt lat="47.98838" lon="-2.2568">
        <ele>182.79</ele>
        <time>2016-07-05T13:01:50Z</time>
      </trkpt>
      <trkpt lat="47.98806" lon="-2.25701">
        <ele>182.31</ele>
        <time>2016-07-05T13:02:20Z</time>
      </trkpt>
      <trkpt lat="47.98775" lon="-2.25722">
        <ele>181.83</ele>
        <time>2016-07-05T13:02:50Z</time>
      </trkpt>
      <trkpt lat="47.98737" lon="-2.25738">
        <ele>181.83</ele>
        <time>2016-07-05T13:03:20Z</time>
      </trkpt>
      <trkpt lat="47.98699" lon="-2.25761">
        <ele>181.83</ele>
        <time>2016-07-05T13:03:50Z</time>
      </trkpt>
      <trkpt lat="47.98667" lon="-2.25783">
        <ele>181.83</ele>
        <time>2016-07-05T13:04:20Z</time>
      </trkpt>
      <trkpt lat="47.98629" lon="-2.25806">
        <ele>183.27</ele>
        <time>2016-07-05T13:04:50Z</time>
      </trkpt>
      <trkpt lat="47.98595" lon="-2.25828">
        <ele>183.27</ele>
        <time>2016-07-05T13:05:20Z</time>
      </trkpt>
      <trkpt lat="47.98572" lon="-2.25854">
        <ele>184.23</ele>
        <time>2016-07-05T13:05:50Z</time>
      </trkpt>
      <trkpt lat="47.98538" lon="-2.25863">
        <ele>184.23</ele>
        <time>2016-07-05T13:06:20Z</time>
      </trkpt>
      <trkpt lat="47.9851" lon="-2.25886">
        <ele>184.23</ele>
        <time>2016-07-05T13:06:50Z</time>
      </trkpt>
      <trkpt lat="47.98504" lon="-2.25894">
        <ele>183.75</ele>
        <time>2016-07-05T13:07:20Z</time>
      </trkpt>
      <trkpt lat="47.98491" lon="-2.25892">
        <ele>183.27</ele>
        <time>2016-07-05T13:07:50Z</time>
      </trkpt>
      <trkpt lat="47.9846" lon="-2.2591">
        <ele>182.79</ele>
        <time>2016-07-05T13:08:20Z</time>
      </trkpt>
      <trkpt lat="47.98424" lon="-2.25929">
        <ele>182.31</ele>
        <time>2016-07-05T13:08:50Z</time>
      </trkpt>
      <trkpt lat="47.98388" lon="-2.2595">
        <ele>181.35</ele>
        <time>2016-07-05T13:09:20Z</time>
      </trkpt>
      <trkpt lat="47.98357" lon="-2.25966">
        <ele>180.87</ele>
        <time>2016-07-05T13:09:50Z</time>
      </trkpt>
      <trkpt lat="47.98322" lon="-2.25981">
        <ele>179.42</ele>
        <time>2016-07-05T13:10:20Z</time>
      </trkpt>
      <trkpt lat="47.9829" lon="-2.25983">
        <ele>178.46</ele>
        <time>2016-07-05T13:10:50Z</time>
      </trkpt>
      <trkpt lat="47.98254" lon="-2.25982">
        <ele>176.54</ele>
        <time>2016-07-05T13:11:20Z</time>
      </trkpt>
      <trkpt lat="47.98216" lon="-2.25974">
        <ele>174.62</ele>
        <time>2016-07-05T13:11:50Z</time>
      </trkpt>
      <trkpt lat="47.98184" lon="-2.25977">
        <ele>172.69</ele>
        <time>2016-07-05T13:12:20Z</time>
      </trkpt>
      <trkpt lat="47.98151" lon="-2.25997">
        <ele>170.29</ele>
        <time>2016-07-05T13:12:50Z</time>
      </trkpt>
      <trkpt lat="47.98147" lon="-2.26053">
        <ele>167.89</ele>
        <time>2016-07-05T13:13:20Z</time>
      </trkpt>
      <trkpt lat="47.98151" lon="-2.26117">
        <ele>165.48</ele>
        <time>2016-07-05T13:13:50Z</time>
      </trkpt>
      <trkpt lat="47.9816" lon="-2.2617">
        <ele>162.12</ele>
        <time>2016-07-05T13:14:20Z</time>
      </trkpt>
      <trkpt lat="47.98161" lon="-2.2623">
        <ele>160.68</ele>
        <time>2016-07-05T13:14:50Z</time>
      </trkpt>
      <trkpt lat="47.98148" lon="-2.26279">
        <ele>157.79</ele>
        <time>2016-07-05T13:15:20Z</time>
      </trkpt>
      <trkpt lat="47.98147" lon="-2.26289">
        <ele>156.35</ele>
        <time>2016-07-05T13:15:50Z</time>
      </trkpt>
      <trkpt lat="47.98114" lon="-2.26287">
        <ele>154.91</ele>
        <time>2016-07-05T13:16:20Z</time>
      </trkpt>
      <trkpt lat="47.9807" lon="-2.26295">
        <ele>151.54</ele>
        <time>2016-07-05T13:16:50Z</time>
      </trkpt>
      <trkpt lat="47.98058" lon="-2.26351">
        <ele>149.62</ele>
        <time>2016-07-05T13:17:20Z</time>
      </trkpt>
      <trkpt lat="47.9807" lon="-2.26413">
        <ele>146.74</ele>
        <time>2016-07-05T13:17:50Z</time>
      </trkpt>
      <trkpt lat="47.98083" lon="-2.26464">
        <ele>144.82</ele>
        <time>2016-07-05T13:18:20Z</time>
      </trkpt>
      <trkpt lat="47.98101" lon="-2.26516">
        <ele>141.93</ele>
        <time>2016-07-05T13:18:50Z</time>
      </trkpt>
      <trkpt lat="47.9812" lon="-2.26557">
        <ele>140.01</ele>
        <time>2016-07-05T13:19:20Z</time>
      </trkpt>
      <trkpt lat="47.98141" lon="-2.26605">
        <ele>138.57</ele>
        <time>2016-07-05T13:19:50Z</time>
      </trkpt>
      <trkpt lat="47.98154" lon="-2.26669">
        <ele>136.64</ele>
        <time>2016-07-05T13:20:20Z</time>
      </trkpt>
      <trkpt lat="47.98167" lon="-2.26726">
        <ele>134.24</ele>
        <time>2016-07-05T13:20:50Z</time>
      </trkpt>
      <trkpt lat="47.98152" lon="-2.2677">
        <ele>129.92</ele>
        <time>2016-07-05T13:21:20Z</time>
      </trkpt>
      <trkpt lat="47.98118" lon="-2.26777">
        <ele>126.55</ele>
        <time>2016-07-05T13:21:50Z</time>
      </trkpt>
      <trkpt lat="47.98083" lon="-2.26769">
        <ele>124.15</ele>
        <time>2016-07-05T13:22:20Z</time>
      </trkpt>
      <trkpt lat="47.98051" lon="-2.26744">
        <ele>122.22</ele>
        <time>2016-07-05T13:22:50Z</time>
      </trkpt>
      <trkpt lat="47.98018" lon="-2.26719">
        <ele>120.78</ele>
        <time>2016-07-05T13:23:20Z</time>
      </trkpt>
      <trkpt lat="47.97981" lon="-2.26691">
        <ele>118.86</ele>
        <time>2016-07-05T13:23:50Z</time>
      </trkpt>
      <trkpt lat="47.97939" lon="-2.26686">
        <ele>116.46</ele>
        <time>2016-07-05T13:24:20Z</time>
      </trkpt>
      <trkpt lat="47.97914" lon="-2.26736">
        <ele>112.61</ele>
        <time>2016-07-05T13:24:50Z</time>
      </trkpt>
      <trkpt lat="47.97909" lon="-2.26787">
        <ele>110.21</ele>
        <time>2016-07-05T13:25:20Z</time>
      </trkpt>
      <trkpt lat="47.97897" lon="-2.26835">
        <ele>107.32</ele>
        <time>2016-07-05T13:25:50Z</time>
      </trkpt>
      <trkpt lat="47.97882" lon="-2.26866">
        <ele>105.4</ele>
        <time>2016-07-05T13:26:20Z</time>
      </trkpt>
      <trkpt lat="47.97852" lon="-2.26905">
        <ele>102.04</ele>
        <time>2016-07-05T13:26:50Z</time>
      </trkpt>
      <trkpt lat="47.97821" lon="-2.26948">
        <ele>100.11</ele>
        <time>2016-07-05T13:27:20Z</time>
      </trkpt>
      <trkpt lat="47.97789" lon="-2.26981">
        <ele>98.67</ele>
        <time>2016-07-05T13:27:50Z</time>
      </trkpt>
      <trkpt lat="47.97757" lon="-2.27013">
        <ele>96.75</ele>
        <time>2016-07-05T13:28:20Z</time>
      </trkpt>
      <trkpt lat="47.97732" lon="-2.27054">
        <ele>96.27</ele>
        <time>2016-07-05T13:28:50Z</time>
      </trkpt>
      <trkpt lat="47.97704" lon="-2.27101">
        <ele>95.31</ele>
        <time>2016-07-05T13:29:20Z</time>
      </trkpt>
      <trkpt lat="47.97674" lon="-2.27134">
        <ele>93.39</ele>
        <time>2016-07-05T13:29:50Z</time>
      </trkpt>
      <trkpt lat="47.97642" lon="-2.27167">
        <ele>92.42</ele>
        <time>2016-07-05T13:30:20Z</time>
      </trkpt>
      <trkpt lat="47.97605" lon="-2.27186">
        <ele>91.46</ele>
        <time>2016-07-05T13:30:50Z</time>
      </trkpt>
      <trkpt lat="47.97572" lon="-2.27208">
        <ele>90.5</ele>
        <time>2016-07-05T13:31:20Z</time>
      </trkpt>
      <trkpt lat="47.97548" lon="-2.27253">
        <ele>90.02</ele>
        <time>2016-07-05T13:31:50Z</time>
      </trkpt>
      <trkpt lat="47.97525" lon="-2.273">
        <ele>89.06</ele>
        <time>2016-07-05T13:32:20Z</time>
      </trkpt>
      <trkpt lat="47.97525" lon="-2.27306">
        <ele>89.54</ele>
        <time>2016-07-05T13:32:50Z</time>
      </trkpt>
      <trkpt lat="47.97524" lon="-2.27312">
        <ele>88.58</ele>
        <time>2016-07-05T13:33:20Z</time>
      </trkpt>
      <trkpt lat="47.97521" lon="-2.27325">
        <ele>90.02</ele>
        <time>2016-07-05T13:33:50Z</time>
      </trkpt>
      <trkpt lat="47.97524" lon="-2.2732">
        <ele>89.06</ele>
        <time>2016-07-05T13:34:20Z</time>
      </trkpt>
      <trkpt lat="47.97522" lon="-2.27316">
        <ele>89.06</ele>
        <time>2016-07-05T13:34:50Z</time>
      </trkpt>
      <trkpt lat="47.9752" lon="-2.27314">
        <ele>89.54</ele>
        <time>2016-07-05T13:35:20Z</time>
      </trkpt>
      <trkpt lat="47.97519" lon="-2.27315">
        <ele>89.54</ele>
        <time>2016-07-05T13:35:50Z</time>
      </trkpt>
      <trkpt lat="47.97519" lon="-2.27315">
        <ele>89.54</ele>
        <time>2016-07-05T13:36:20Z</time>
      </trkpt>
      <trkpt lat="47.97517" lon="-2.27318">
        <ele>90.5</ele>
        <time>2016-07-05T13:36:50Z</time>
      </trkpt>
      <trkpt lat="47.97516" lon="-2.27317">
        <ele>90.5</ele>
        <time>2016-07-05T13:37:20Z</time>
      </trkpt>
      <trkpt lat="47.97517" lon="-2.27316">
        <ele>90.5</ele>
        <time>2016-07-05T13:37:50Z</time>
      </trkpt>
      <trkpt lat="47.97515" lon="-2.27317">
        <ele>90.5</ele>
        <time>2016-07-05T13:38:20Z</time>
      </trkpt>
      <trkpt lat="47.97517" lon="-2.27314">
        <ele>90.98</ele>
        <time>2016-07-05T13:38:50Z</time>
      </trkpt>
      <trkpt lat="47.97515" lon="-2.27313">
        <ele>91.46</ele>
        <time>2016-07-05T13:39:20Z</time>
      </trkpt>
      <trkpt lat="47.97518" lon="-2.27312">
        <ele>91.46</ele>
        <time>2016-07-05T13:39:50Z</time>
      </trkpt>
      <trkpt lat="47.97515" lon="-2.27315">
        <ele>91.46</ele>
        <time>2016-07-05T13:40:20Z</time>
      </trkpt>
      <trkpt lat="47.9752" lon="-2.27315">
        <ele>91.94</ele>
        <time>2016-07-05T13:40:50Z</time>
      </trkpt>
      <trkpt lat="47.97518" lon="-2.27313">
        <ele>90.98</ele>
        <time>2016-07-05T13:41:20Z</time>
      </trkpt>
      <trkpt lat="47.97515" lon="-2.27316">
        <ele>91.46</ele>
        <time>2016-07-05T13:41:50Z</time>
      </trkpt>
      <trkpt lat="47.97519" lon="-2.27315">
        <ele>91.94</ele>
        <time>2016-07-05T13:42:20Z</time>
      </trkpt>
      <trkpt lat="47.97521" lon="-2.2732">
        <ele>91.94</ele>
        <time>2016-07-05T13:42:50Z</time>
      </trkpt>
      <trkpt lat="47.97521" lon="-2.27322">
        <ele>92.9</ele>
        <time>2016-07-05T13:43:20Z</time>
      </trkpt>
      <trkpt lat="47.9752" lon="-2.27322">
        <ele>93.39</ele>
        <time>2016-07-05T13:43:50Z</time>
      </trkpt>
      <trkpt lat="47.97518" lon="-2.27322">
        <ele>93.39</ele>
        <time>2016-07-05T13:44:20Z</time>
      </trkpt>
      <trkpt lat="47.97514" lon="-2.27329">
        <ele>93.39</ele>
        <time>2016-07-05T13:44:50Z</time>
      </trkpt>
      <trkpt lat="47.97511" lon="-2.27364">
        <ele>93.39</ele>
        <time>2016-07-05T13:45:20Z</time>
      </trkpt>
      <trkpt lat="47.97519" lon="-2.27381">
        <ele>93.87</ele>
        <time>2016-07-05T13:45:50Z</time>
      </trkpt>
      <trkpt lat="47.97524" lon="-2.27399">
        <ele>94.35</ele>
        <time>2016-07-05T13:46:20Z</time>
      </trkpt>
      <trkpt lat="47.97518" lon="-2.274">
        <ele>94.35</ele>
        <time>2016-07-05T13:46:50Z</time>
      </trkpt>
      <trkpt lat="47.97513" lon="-2.27401">
        <ele>94.35</ele>
        <time>2016-07-05T13:47:20Z</time>
      </trkpt>
      <trkpt lat="47.97516" lon="-2.27401">
        <ele>93.87</ele>
        <time>2016-07-05T13:47:50Z</time>
      </trkpt>
      <trkpt lat="47.97516" lon="-2.27398">
        <ele>94.35</ele>
        <time>2016-07-05T13:48:20Z</time>
      </trkpt>
      <trkpt lat="47.97517" lon="-2.27446">
        <ele>95.79</ele>
        <time>2016-07-05T13:48:50Z</time>
      </trkpt>
      <trkpt lat="47.97524" lon="-2.27474">
        <ele>96.75</ele>
        <time>2016-07-05T13:49:20Z</time>
      </trkpt>
      <trkpt lat="47.97527" lon="-2.27474">
        <ele>96.75</ele>
        <time>2016-07-05T13:49:50Z</time>
      </trkpt>
      <trkpt lat="47.97523" lon="-2.27454">
        <ele>95.79</ele>
        <time>2016-07-05T13:50:20Z</time>
      </trkpt>
      <trkpt lat="47.97526" lon="-2.27449">
        <ele>95.79</ele>
        <time>2016-07-05T13:50:50Z</time>
      </trkpt>
      <trkpt lat="47.97524" lon="-2.27452">
        <ele>96.27</ele>
        <time>2016-07-05T13:51:20Z</time>
      </trkpt>
      <trkpt lat="47.97521" lon="-2.27458">
        <ele>96.75</ele>
        <time>2016-07-05T13:51:50Z</time>
      </trkpt>
      <trkpt lat="47.97502" lon="-2.27501">
        <ele>98.19</ele>
        <time>2016-07-05T13:52:20Z</time>
      </trkpt>
      <trkpt lat="47.9749" lon="-2.27549">
        <ele>99.15</ele>
        <time>2016-07-05T13:52:50Z</time>
      </trkpt>
      <trkpt lat="47.97477" lon="-2.27592">
        <ele>99.63</ele>
        <time>2016-07-05T13:53:20Z</time>
      </trkpt>
      <trkpt lat="47.97475" lon="-2.27622">
        <ele>99.15</ele>
        <time>2016-07-05T13:53:50Z</time>
      </trkpt>
      <trkpt lat="47.97479" lon="-2.27617">
        <ele>99.15</ele>
        <time>2016-07-05T13:54:20Z</time>
      </trkpt>
      <trkpt lat="47.97494" lon="-2.27627">
        <ele>100.11</ele>
        <time>2016-07-05T13:54:50Z</time>
      </trkpt>
      <trkpt lat="47.97521" lon="-2.27629">
        <ele>99.63</ele>
        <time>2016-07-05T13:55:20Z</time>
      </trkpt>
      <trkpt lat="47.97556" lon="-2.27635">
        <ele>98.67</ele>
        <time>2016-07-05T13:55:50Z</time>
      </trkpt>
      <trkpt lat="47.97591" lon="-2.27638">
        <ele>98.19</ele>
        <time>2016-07-05T13:56:20Z</time>
      </trkpt>
      <trkpt lat="47.97626" lon="-2.27644">
        <ele>97.23</ele>
        <time>2016-07-05T13:56:50Z</time>
      </trkpt>
      <trkpt lat="47.97643" lon="-2.2764">
        <ele>97.71</ele>
        <time>2016-07-05T13:57:20Z</time>
      </trkpt>
      <trkpt lat="47.97674" lon="-2.27643">
        <ele>96.75</ele>
        <time>2016-07-05T13:57:50Z</time>
      </trkpt>
      <trkpt lat="47.97704" lon="-2.27636">
        <ele>96.75</ele>
        <time>2016-07-05T13:58:20Z</time>
      </trkpt>
      <trkpt lat="47.97727" lon="-2.27621">
        <ele>97.23</ele>
        <time>2016-07-05T13:58:50Z</time>
      </trkpt>
      <trkpt lat="47.97745" lon="-2.27606">
        <ele>98.19</ele>
        <time>2016-07-05T13:59:20Z</time>
      </trkpt>
      <trkpt lat="47.97769" lon="-2.27574">
        <ele>99.15</ele>
        <time>2016-07-05T13:59:50Z</time>
      </trkpt>
      <trkpt lat="47.97796" lon="-2.27539">
        <ele>100.6</ele>
        <time>2016-07-05T14:00:20Z</time>
      </trkpt>
      <trkpt lat="47.97825" lon="-2.27502">
        <ele>101.56</ele>
        <time>2016-07-05T14:00:50Z</time>
      </trkpt>
      <trkpt lat="47.97852" lon="-2.27461">
        <ele>102.52</ele>
        <time>2016-07-05T14:01:20Z</time>
      </trkpt>
      <trkpt lat="47.97876" lon="-2.27415">
        <ele>103.48</ele>
        <time>2016-07-05T14:01:50Z</time>
      </trkpt>
      <trkpt lat="47.97898" lon="-2.27374">
        <ele>103.48</ele>
        <time>2016-07-05T14:02:20Z</time>
      </trkpt>
      <trkpt lat="47.97922" lon="-2.27341">
        <ele>103.48</ele>
        <time>2016-07-05T14:02:50Z</time>
      </trkpt>
      <trkpt lat="47.97958" lon="-2.27343">
        <ele>104.92</ele>
        <time>2016-07-05T14:03:20Z</time>
      </trkpt>
      <trkpt lat="47.9799" lon="-2.27362">
        <ele>107.32</ele>
        <time>2016-07-05T14:03:50Z</time>
      </trkpt>
      <trkpt lat="47.98006" lon="-2.27391">
        <ele>108.77</ele>
        <time>2016-07-05T14:04:20Z</time>
      </trkpt>
      <trkpt lat="47.98009" lon="-2.2741">
        <ele>109.25</ele>
        <time>2016-07-05T14:04:50Z</time>
      </trkpt>
      <trkpt lat="47.98011" lon="-2.2743">
        <ele>109.25</ele>
        <time>2016-07-05T14:05:20Z</time>
      </trkpt>
      <trkpt lat="47.98015" lon="-2.27442">
        <ele>108.77</ele>
        <time>2016-07-05T14:05:50Z</time>
      </trkpt>
      <trkpt lat="47.98032" lon="-2.27478">
        <ele>109.25</ele>
        <time>2016-07-05T14:06:20Z</time>
      </trkpt>
      <trkpt lat="47.98039" lon="-2.27486">
        <ele>109.25</ele>
        <time>2016-07-05T14:06:50Z</time>
      </trkpt>
      <trkpt lat="47.98052" lon="-2.27514">
        <ele>109.25</ele>
        <time>2016-07-05T14:07:20Z</time>
      </trkpt>
      <trkpt lat="47.98075" lon="-2.27557">
        <ele>109.25</ele>
        <time>2016-07-05T14:07:50Z</time>
      </trkpt>
      <trkpt lat="47.98112" lon="-2.27579">
        <ele>109.73</ele>
        <time>2016-07-05T14:08:20Z</time>
      </trkpt>
      <trkpt lat="47.98146" lon="-2.27585">
        <ele>112.61</ele>
        <time>2016-07-05T14:08:50Z</time>
      </trkpt>
      <trkpt lat="47.98179" lon="-2.27581">
        <ele>114.05</ele>
        <time>2016-07-05T14:09:20Z</time>
      </trkpt>
      <trkpt lat="47.98188" lon="-2.2758">
        <ele>115.5</ele>
        <time>2016-07-05T14:09:50Z</time>
      </trkpt>
      <trkpt lat="47.98221" lon="-2.2758">
        <ele>117.9</ele>
        <time>2016-07-05T14:10:20Z</time>
      </trkpt>
      <trkpt lat="47.98248" lon="-2.27581">
        <ele>119.34</ele>
        <time>2016-07-05T14:10:50Z</time>
      </trkpt>
      <trkpt lat="47.9829" lon="-2.2757">
        <ele>121.74</ele>
        <time>2016-07-05T14:11:20Z</time>
      </trkpt>
      <trkpt lat="47.9832" lon="-2.27554">
        <ele>123.67</ele>
        <time>2016-07-05T14:11:50Z</time>
      </trkpt>
      <trkpt lat="47.98354" lon="-2.27542">
        <ele>124.63</ele>
        <time>2016-07-05T14:12:20Z</time>
      </trkpt>
      <trkpt lat="47.98389" lon="-2.27526">
        <ele>126.55</ele>
        <time>2016-07-05T14:12:50Z</time>
      </trkpt>
      <trkpt lat="47.98419" lon="-2.27504">
        <ele>128.47</ele>
        <time>2016-07-05T14:13:20Z</time>
      </trkpt>
      <trkpt lat="47.98444" lon="-2.27477">
        <ele>130.88</ele>
        <time>2016-07-05T14:13:50Z</time>
      </trkpt>
      <trkpt lat="47.9847" lon="-2.27446">
        <ele>133.76</ele>
        <time>2016-07-05T14:14:20Z</time>
      </trkpt>
      <trkpt lat="47.98479" lon="-2.27438">
        <ele>135.2</ele>
        <time>2016-07-05T14:14:50Z</time>
      </trkpt>
      <trkpt lat="47.98475" lon="-2.27433">
        <ele>135.2</ele>
        <time>2016-07-05T14:15:20Z</time>
      </trkpt>
      <trkpt lat="47.98499" lon="-2.27409">
        <ele>138.09</ele>
        <time>2016-07-05T14:15:50Z</time>
      </trkpt>
      <trkpt lat="47.9852" lon="-2.27384">
        <ele>140.97</ele>
        <time>2016-07-05T14:16:20Z</time>
      </trkpt>
      <trkpt lat="47.98544" lon="-2.27357">
        <ele>144.34</ele>
        <time>2016-07-05T14:16:50Z</time>
      </trkpt>
      <trkpt lat="47.98568" lon="-2.27332">
        <ele>146.74</ele>
        <time>2016-07-05T14:17:20Z</time>
      </trkpt>
      <trkpt lat="47.9859" lon="-2.27303">
        <ele>151.06</ele>
        <time>2016-07-05T14:17:50Z</time>
      </trkpt>
      <trkpt lat="47.98594" lon="-2.273">
        <ele>151.06</ele>
        <time>2016-07-05T14:18:20Z</time>
      </trkpt>
      <trkpt lat="47.98593" lon="-2.27299">
        <ele>152.03</ele>
        <time>2016-07-05T14:18:50Z</time>
      </trkpt>
      <trkpt lat="47.98595" lon="-2.27303">
        <ele>151.54</ele>
        <time>2016-07-05T14:19:20Z</time>
      </trkpt>
      <trkpt lat="47.98595" lon="-2.27302">
        <ele>151.54</ele>
        <time>2016-07-05T14:19:50Z</time>
      </trkpt>
      <trkpt lat="47.98594" lon="-2.27299">
        <ele>152.03</ele>
        <time>2016-07-05T14:20:20Z</time>
      </trkpt>
      <trkpt lat="47.98594" lon="-2.273">
        <ele>151.54</ele>
        <time>2016-07-05T14:20:50Z</time>
      </trkpt>
      <trkpt lat="47.98596" lon="-2.27299">
        <ele>151.54</ele>
        <time>2016-07-05T14:21:20Z</time>
      </trkpt>
      <trkpt lat="47.98599" lon="-2.27298">
        <ele>152.03</ele>
        <time>2016-07-05T14:21:50Z</time>
      </trkpt>
      <trkpt lat="47.98596" lon="-2.27298">
        <ele>152.03</ele>
        <time>2016-07-05T14:22:20Z</time>
      </trkpt>
      <trkpt lat="47.98599" lon="-2.27304">
        <ele>152.51</ele>
        <time>2016-07-05T14:22:50Z</time>
      </trkpt>
      <trkpt lat="47.98621" lon="-2.27343">
        <ele>154.43</ele>
        <time>2016-07-05T14:23:20Z</time>
      </trkpt>
      <trkpt lat="47.98644" lon="-2.27373">
        <ele>155.87</ele>
        <time>2016-07-05T14:23:50Z</time>
      </trkpt>
      <trkpt lat="47.98652" lon="-2.2739">
        <ele>156.83</ele>
        <time>2016-07-05T14:24:20Z</time>
      </trkpt>
      <trkpt lat="47.98671" lon="-2.27429">
        <ele>158.27</ele>
        <time>2016-07-05T14:24:50Z</time>
      </trkpt>
      <trkpt lat="47.98697" lon="-2.27466">
        <ele>159.72</ele>
        <time>2016-07-05T14:25:20Z</time>
      </trkpt>
      <trkpt lat="47.9872" lon="-2.27504">
        <ele>160.68</ele>
        <time>2016-07-05T14:25:50Z</time>
      </trkpt>
      <trkpt lat="47.98743" lon="-2.27542">
        <ele>162.12</ele>
        <time>2016-07-05T14:26:20Z</time>
      </trkpt>
      <trkpt lat="47.98764" lon="-2.27573">
        <ele>162.12</ele>
        <time>2016-07-05T14:26:50Z</time>
      </trkpt>
      <trkpt lat="47.98784" lon="-2.2761">
        <ele>162.12</ele>
        <time>2016-07-05T14:27:20Z</time>
      </trkpt>
      <trkpt lat="47.98808" lon="-2.27655">
        <ele>162.12</ele>
        <time>2016-07-05T14:27:50Z</time>
      </trkpt>
      <trkpt lat="47.98815" lon="-2.27662">
        <ele>161.16</ele>
        <time>2016-07-05T14:28:20Z</time>
      </trkpt>
      <trkpt lat="47.98813" lon="-2.27659">
        <ele>161.16</ele>
        <time>2016-07-05T14:28:50Z</time>
      </trkpt>
      <trkpt lat="47.98816" lon="-2.27659">
        <ele>161.16</ele>
        <time>2016-07-05T14:29:20Z</time>
      </trkpt>
      <trkpt lat="47.98814" lon="-2.27657">
        <ele>161.64</ele>
        <time>2016-07-05T14:29:50Z</time>
      </trkpt>
      <trkpt lat="47.98813" lon="-2.27661">
        <ele>161.64</ele>
        <time>2016-07-05T14:30:20Z</time>
      </trkpt>
      <trkpt lat="47.9882" lon="-2.27666">
        <ele>161.16</ele>
        <time>2016-07-05T14:30:50Z</time>
      </trkpt>
      <trkpt lat="47.98815" lon="-2.27662">
        <ele>161.64</ele>
        <time>2016-07-05T14:31:20Z</time>
      </trkpt>
      <trkpt lat="47.98815" lon="-2.27666">
        <ele>161.64</ele>
        <time>2016-07-05T14:31:50Z</time>
      </trkpt>
      <trkpt lat="47.98815" lon="-2.27666">
        <ele>161.64</ele>
        <time>2016-07-05T14:32:20Z</time>
      </trkpt>
      <trkpt lat="47.98814" lon="-2.27663">
        <ele>162.6</ele>
        <time>2016-07-05T14:32:50Z</time>
      </trkpt>
      <trkpt lat="47.98816" lon="-2.27663">
        <ele>162.12</ele>
        <time>2016-07-05T14:33:20Z</time>
      </trkpt>
      <trkpt lat="47.98815" lon="-2.27664">
        <ele>162.12</ele>
        <time>2016-07-05T14:33:50Z</time>
      </trkpt>
      <trkpt lat="47.98816" lon="-2.27663">
        <ele>162.12</ele>
        <time>2016-07-05T14:34:20Z</time>
      </trkpt>
      <trkpt lat="47.98822" lon="-2.27667">
        <ele>162.12</ele>
        <time>2016-07-05T14:34:50Z</time>
      </trkpt>
      <trkpt lat="47.98814" lon="-2.27664">
        <ele>162.6</ele>
        <time>2016-07-05T14:35:20Z</time>
      </trkpt>
      <trkpt lat="47.98818" lon="-2.27669">
        <ele>162.6</ele>
        <time>2016-07-05T14:35:50Z</time>
      </trkpt>
      <trkpt lat="47.98817" lon="-2.27668">
        <ele>163.08</ele>
        <time>2016-07-05T14:36:20Z</time>
      </trkpt>
      <trkpt lat="47.98826" lon="-2.27681">
        <ele>161.64</ele>
        <time>2016-07-05T14:36:50Z</time>
      </trkpt>
      <trkpt lat="47.98857" lon="-2.27667">
        <ele>162.6</ele>
        <time>2016-07-05T14:37:20Z</time>
      </trkpt>
      <trkpt lat="47.98882" lon="-2.27634">
        <ele>165</ele>
        <time>2016-07-05T14:37:50Z</time>
      </trkpt>
      <trkpt lat="47.98906" lon="-2.27606">
        <ele>167.89</ele>
        <time>2016-07-05T14:38:20Z</time>
      </trkpt>
      <trkpt lat="47.98921" lon="-2.27582">
        <ele>168.37</ele>
        <time>2016-07-05T14:38:50Z</time>
      </trkpt>
      <trkpt lat="47.98948" lon="-2.27546">
        <ele>170.29</ele>
        <time>2016-07-05T14:39:20Z</time>
      </trkpt>
      <trkpt lat="47.98978" lon="-2.2751">
        <ele>172.21</ele>
        <time>2016-07-05T14:39:50Z</time>
      </trkpt>
      <trkpt lat="47.99" lon="-2.27479">
        <ele>174.62</ele>
        <time>2016-07-05T14:40:20Z</time>
      </trkpt>
      <trkpt lat="47.99026" lon="-2.27441">
        <ele>176.06</ele>
        <time>2016-07-05T14:40:50Z</time>
      </trkpt>
      <trkpt lat="47.99049" lon="-2.27411">
        <ele>177.02</ele>
        <time>2016-07-05T14:41:20Z</time>
      </trkpt>
      <trkpt lat="47.99068" lon="-2.27375">
        <ele>177.5</ele>
        <time>2016-07-05T14:41:50Z</time>
      </trkpt>
      <trkpt lat="47.99094" lon="-2.27344">
        <ele>177.5</ele>
        <time>2016-07-05T14:42:20Z</time>
      </trkpt>
      <trkpt lat="47.99124" lon="-2.27303">
        <ele>177.98</ele>
        <time>2016-07-05T14:42:50Z</time>
      </trkpt>
      <trkpt lat="47.99149" lon="-2.27269">
        <ele>180.87</ele>
        <time>2016-07-05T14:43:20Z</time>
      </trkpt>
      <trkpt lat="47.99173" lon="-2.27238">
        <ele>181.83</ele>
        <time>2016-07-05T14:43:50Z</time>
      </trkpt>
      <trkpt lat="47.99196" lon="-2.27205">
        <ele>184.23</ele>
        <time>2016-07-05T14:44:20Z</time>
      </trkpt>
      <trkpt lat="47.99207" lon="-2.27189">
        <ele>184.23</ele>
        <time>2016-07-05T14:44:50Z</time>
      </trkpt>
      <trkpt lat="47.99204" lon="-2.27161">
        <ele>185.67</ele>
        <time>2016-07-05T14:45:20Z</time>
      </trkpt>
      <trkpt lat="47.99204" lon="-2.27114">
        <ele>188.08</ele>
        <time>2016-07-05T14:45:50Z</time>
      </trkpt>
      <trkpt lat="47.99202" lon="-2.27068">
        <ele>190</ele>
        <time>2016-07-05T14:46:20Z</time>
      </trkpt>
      <trkpt lat="47.99204" lon="-2.27015">
        <ele>190.96</ele>
        <time>2016-07-05T14:46:50Z</time>
      </trkpt>
      <trkpt lat="47.99203" lon="-2.26966">
        <ele>190.96</ele>
        <time>2016-07-05T14:47:20Z</time>
      </trkpt>
      <trkpt lat="47.99204" lon="-2.26915">
        <ele>190.48</ele>
        <time>2016-07-05T14:47:50Z</time>
      </trkpt>
      <trkpt lat="47.99194" lon="-2.26909">
        <ele>191.44</ele>
        <time>2016-07-05T14:48:20Z</time>
      </trkpt>
      <trkpt lat="47.99188" lon="-2.2691">
        <ele>191.44</ele>
        <time>2016-07-05T14:48:50Z</time>
      </trkpt>
      <trkpt lat="47.99187" lon="-2.26913">
        <ele>190.48</ele>
        <time>2016-07-05T14:49:20Z</time>
      </trkpt>
      <trkpt lat="47.99186" lon="-2.26911">
        <ele>190.96</ele>
        <time>2016-07-05T14:49:50Z</time>
      </trkpt>
      <trkpt lat="47.99191" lon="-2.269">
        <ele>190.96</ele>
        <time>2016-07-05T14:50:20Z</time>
      </trkpt>
      <trkpt lat="47.9919" lon="-2.26902">
        <ele>190.96</ele>
        <time>2016-07-05T14:50:50Z</time>
      </trkpt>
      <trkpt lat="47.99184" lon="-2.2691">
        <ele>191.44</ele>
        <time>2016-07-05T14:51:20Z</time>
      </trkpt>
      <trkpt lat="47.99189" lon="-2.26907">
        <ele>191.92</ele>
        <time>2016-07-05T14:51:50Z</time>
      </trkpt>
      <trkpt lat="47.99191" lon="-2.26912">
        <ele>192.88</ele>
        <time>2016-07-05T14:52:20Z</time>
      </trkpt>
      <trkpt lat="47.99187" lon="-2.26909">
        <ele>193.36</ele>
        <time>2016-07-05T14:52:50Z</time>
      </trkpt>
      <trkpt lat="47.99192" lon="-2.26913">
        <ele>193.36</ele>
        <time>2016-07-05T14:53:20Z</time>
      </trkpt>
      <trkpt lat="47.99204" lon="-2.26907">
        <ele>194.32</ele>
        <time>2016-07-05T14:53:50Z</time>
      </trkpt>
      <trkpt lat="47.99197" lon="-2.26942">
        <ele>194.32</ele>
        <time>2016-07-05T14:54:20Z</time>
      </trkpt>
      <trkpt lat="47.99197" lon="-2.26991">
        <ele>194.32</ele>
        <time>2016-07-05T14:54:50Z</time>
      </trkpt>
      <trkpt lat="47.99197" lon="-2.27052">
        <ele>193.36</ele>
        <time>2016-07-05T14:55:20Z</time>
      </trkpt>
      <trkpt lat="47.99196" lon="-2.27105">
        <ele>191.92</ele>
        <time>2016-07-05T14:55:50Z</time>
      </trkpt>
      <trkpt lat="47.992" lon="-2.27152">
        <ele>190</ele>
        <time>2016-07-05T14:56:20Z</time>
      </trkpt>
      <trkpt lat="47.99214" lon="-2.27197">
        <ele>187.59</ele>
        <time>2016-07-05T14:56:50Z</time>
      </trkpt>
      <trkpt lat="47.9925" lon="-2.272">
        <ele>188.56</ele>
        <time>2016-07-05T14:57:20Z</time>
      </trkpt>
      <trkpt lat="47.9929" lon="-2.2721">
        <ele>189.04</ele>
        <time>2016-07-05T14:57:50Z</time>
      </trkpt>
      <trkpt lat="47.99327" lon="-2.27211">
        <ele>189.04</ele>
        <time>2016-07-05T14:58:20Z</time>
      </trkpt>
      <trkpt lat="47.99355" lon="-2.27207">
        <ele>189.52</ele>
        <time>2016-07-05T14:58:50Z</time>
      </trkpt>
      <trkpt lat="47.99351" lon="-2.27205">
        <ele>189.52</ele>
        <time>2016-07-05T14:59:20Z</time>
      </trkpt>
      <trkpt lat="47.99363" lon="-2.2721">
        <ele>189.04</ele>
        <time>2016-07-05T14:59:50Z</time>
      </trkpt>
      <trkpt lat="47.99391" lon="-2.27244">
        <ele>185.67</ele>
        <time>2016-07-05T15:00:20Z</time>
      </trkpt>
      <trkpt lat="47.99419" lon="-2.27263">
        <ele>188.08</ele>
        <time>2016-07-05T15:00:50Z</time>
      </trkpt>
      <trkpt lat="47.99409" lon="-2.27285">
        <ele>187.59</ele>
        <time>2016-07-05T15:01:20Z</time>
      </trkpt>
      <trkpt lat="47.99394" lon="-2.27322">
        <ele>185.67</ele>
        <time>2016-07-05T15:01:50Z</time>
      </trkpt>
      <trkpt lat="47.99377" lon="-2.27383">
        <ele>184.71</ele>
        <time>2016-07-05T15:02:20Z</time>
      </trkpt>
      <trkpt lat="47.99375" lon="-2.27437">
        <ele>184.71</ele>
        <time>2016-07-05T15:02:50Z</time>
      </trkpt>
      <trkpt lat="47.99371" lon="-2.2749">
        <ele>185.19</ele>
        <time>2016-07-05T15:03:20Z</time>
      </trkpt>
      <trkpt lat="47.99367" lon="-2.27542">
        <ele>186.15</ele>
        <time>2016-07-05T15:03:50Z</time>
      </trkpt>
      <trkpt lat="47.99364" lon="-2.276">
        <ele>186.63</ele>
        <time>2016-07-05T15:04:20Z</time>
      </trkpt>
      <trkpt lat="47.99371" lon="-2.27651">
        <ele>187.11</ele>
        <time>2016-07-05T15:04:50Z</time>
      </trkpt>
      <trkpt lat="47.99386" lon="-2.27697">
        <ele>187.11</ele>
        <time>2016-07-05T15:05:20Z</time>
      </trkpt>
      <trkpt lat="47.99396" lon="-2.2775">
        <ele>187.11</ele>
        <time>2016-07-05T15:05:50Z</time>
      </trkpt>
      <trkpt lat="47.99399" lon="-2.27802">
        <ele>187.11</ele>
        <time>2016-07-05T15:06:20Z</time>
      </trkpt>
      <trkpt lat="47.99436" lon="-2.27806">
        <ele>187.59</ele>
        <time>2016-07-05T15:06:50Z</time>
      </trkpt>
      <trkpt lat="47.9947" lon="-2.27807">
        <ele>188.56</ele>
        <time>2016-07-05T15:07:20Z</time>
      </trkpt>
      <trkpt lat="47.99473" lon="-2.27854">
        <ele>189.04</ele>
        <time>2016-07-05T15:07:50Z</time>
      </trkpt>
      <trkpt lat="47.99475" lon="-2.27909">
        <ele>188.08</ele>
        <time>2016-07-05T15:08:20Z</time>
      </trkpt>
      <trkpt lat="47.99483" lon="-2.2795">
        <ele>186.63</ele>
        <time>2016-07-05T15:08:50Z</time>
      </trkpt>
      <trkpt lat="47.99495" lon="-2.28004">
        <ele>184.71</ele>
        <time>2016-07-05T15:09:20Z</time>
      </trkpt>
      <trkpt lat="47.99504" lon="-2.28057">
        <ele>182.79</ele>
        <time>2016-07-05T15:09:50Z</time>
      </trkpt>
      <trkpt lat="47.99514" lon="-2.28109">
        <ele>179.9</ele>
        <time>2016-07-05T15:10:20Z</time>
      </trkpt>
      <trkpt lat="47.99514" lon="-2.28114">
        <ele>179.9</ele>
        <time>2016-07-05T15:10:50Z</time>
      </trkpt>
      <trkpt lat="47.99513" lon="-2.28115">
        <ele>180.87</ele>
        <time>2016-07-05T15:11:20Z</time>
      </trkpt>
      <trkpt lat="47.99514" lon="-2.28115">
        <ele>180.87</ele>
        <time>2016-07-05T15:11:50Z</time>
      </trkpt>
      <trkpt lat="47.99513" lon="-2.2807">
        <ele>182.31</ele>
        <time>2016-07-05T15:12:20Z</time>
      </trkpt>
      <trkpt lat="47.99503" lon="-2.2802">
        <ele>184.23</ele>
        <time>2016-07-05T15:12:50Z</time>
      </trkpt>
      <trkpt lat="47.99494" lon="-2.27967">
        <ele>186.63</ele>
        <time>2016-07-05T15:13:20Z</time>
      </trkpt>
      <trkpt lat="47.99484" lon="-2.27918">
        <ele>187.11</ele>
        <time>2016-07-05T15:13:50Z</time>
      </trkpt>
      <trkpt lat="47.99477" lon="-2.27865">
        <ele>188.56</ele>
        <time>2016-07-05T15:14:20Z</time>
      </trkpt>
      <trkpt lat="47.99475" lon="-2.27811">
        <ele>189.04</ele>
        <time>2016-07-05T15:14:50Z</time>
      </trkpt>
      <trkpt lat="47.99441" lon="-2.27794">
        <ele>188.08</ele>
        <time>2016-07-05T15:15:20Z</time>
      </trkpt>
      <trkpt lat="47.99404" lon="-2.27801">
        <ele>186.63</ele>
        <time>2016-07-05T15:15:50Z</time>
      </trkpt>
      <trkpt lat="47.994" lon="-2.27755">
        <ele>186.15</ele>
        <time>2016-07-05T15:16:20Z</time>
      </trkpt>
      <trkpt lat="47.99392" lon="-2.27699">
        <ele>185.67</ele>
        <time>2016-07-05T15:16:50Z</time>
      </trkpt>
      <trkpt lat="47.99375" lon="-2.27646">
        <ele>185.67</ele>
        <time>2016-07-05T15:17:20Z</time>
      </trkpt>
      <trkpt lat="47.99365" lon="-2.2759">
        <ele>185.19</ele>
        <time>2016-07-05T15:17:50Z</time>
      </trkpt>
      <trkpt lat="47.99365" lon="-2.27533">
        <ele>184.23</ele>
        <time>2016-07-05T15:18:20Z</time>
      </trkpt>
      <trkpt lat="47.99372" lon="-2.27477">
        <ele>184.23</ele>
        <time>2016-07-05T15:18:50Z</time>
      </trkpt>
      <trkpt lat="47.99379" lon="-2.2742">
        <ele>183.75</ele>
        <time>2016-07-05T15:19:20Z</time>
      </trkpt>
      <trkpt lat="47.99389" lon="-2.27363">
        <ele>183.27</ele>
        <time>2016-07-05T15:19:50Z</time>
      </trkpt>
      <trkpt lat="47.99405" lon="-2.27311">
        <ele>184.23</ele>
        <time>2016-07-05T15:20:20Z</time>
      </trkpt>
      <trkpt lat="47.99419" lon="-2.27265">
        <ele>186.63</ele>
        <time>2016-07-05T15:20:50Z</time>
      </trkpt>
      <trkpt lat="47.99406" lon="-2.27259">
        <ele>186.15</ele>
        <time>2016-07-05T15:21:20Z</time>
      </trkpt>
      <trkpt lat="47.99382" lon="-2.27232">
        <ele>185.67</ele>
        <time>2016-07-05T15:21:50Z</time>
      </trkpt>
      <trkpt lat="47.99358" lon="-2.27197">
        <ele>188.08</ele>
        <time>2016-07-05T15:22:20Z</time>
      </trkpt>
      <trkpt lat="47.99357" lon="-2.27199">
        <ele>188.08</ele>
        <time>2016-07-05T15:22:50Z</time>
      </trkpt>
      <trkpt lat="47.99358" lon="-2.272">
        <ele>188.08</ele>
        <time>2016-07-05T15:23:20Z</time>
      </trkpt>
      <trkpt lat="47.99358" lon="-2.27197">
        <ele>188.56</ele>
        <time>2016-07-05T15:23:50Z</time>
      </trkpt>
      <trkpt lat="47.99363" lon="-2.27176">
        <ele>188.56</ele>
        <time>2016-07-05T15:24:20Z</time>
      </trkpt>
      <trkpt lat="47.99375" lon="-2.27128">
        <ele>190.96</ele>
        <time>2016-07-05T15:24:50Z</time>
      </trkpt>
      <trkpt lat="47.99385" lon="-2.27078">
        <ele>191.44</ele>
        <time>2016-07-05T15:25:20Z</time>
      </trkpt>
      <trkpt lat="47.99398" lon="-2.2703">
        <ele>192.4</ele>
        <time>2016-07-05T15:25:50Z</time>
      </trkpt>
      <trkpt lat="47.9941" lon="-2.2698">
        <ele>192.88</ele>
        <time>2016-07-05T15:26:20Z</time>
      </trkpt>
      <trkpt lat="47.99422" lon="-2.2693">
        <ele>192.4</ele>
        <time>2016-07-05T15:26:50Z</time>
      </trkpt>
      <trkpt lat="47.99435" lon="-2.26879">
        <ele>192.4</ele>
        <time>2016-07-05T15:27:20Z</time>
      </trkpt>
      <trkpt lat="47.99445" lon="-2.26827">
        <ele>191.92</ele>
        <time>2016-07-05T15:27:50Z</time>
      </trkpt>
      <trkpt lat="47.99457" lon="-2.2678">
        <ele>191.92</ele>
        <time>2016-07-05T15:28:20Z</time>
      </trkpt>
      <trkpt lat="47.99468" lon="-2.2673">
        <ele>190.96</ele>
        <time>2016-07-05T15:28:50Z</time>
      </trkpt>
      <trkpt lat="47.9947" lon="-2.26703">
        <ele>190.48</ele>
        <time>2016-07-05T15:29:20Z</time>
      </trkpt>
      <trkpt lat="47.99486" lon="-2.26684">
        <ele>190.48</ele>
        <time>2016-07-05T15:29:50Z</time>
      </trkpt>
      <trkpt lat="47.9949" lon="-2.26715">
        <ele>190.96</ele>
        <time>2016-07-05T15:30:20Z</time>
      </trkpt>
      <trkpt lat="47.99492" lon="-2.26715">
        <ele>190.96</ele>
        <time>2016-07-05T15:30:50Z</time>
      </trkpt>
    </trkseg>
  </trk>
</gpx>